メインページ
METAR-TAF:

METAR-TAF

空港 :

Charlevoix Municipal Airport

Charlevoix, ミシガン州, アメリカ合衆国

緯度: 45-18-17N, 経度: 085-16-29W, 海抜: 204m

現時点の気象観測

当レポートは6分前の05:55(UTC)に作成
東/南東の風 4kt
気温 7°C
湿度 57%
気圧 1016 hPa
視程: 16.1km
晴天

METAR: KCVX 040555Z AUTO 12004KT 10SM CLR 07/M01 A3001 RMK AO2 T00651010 10076 20044

時間: 02:01 (06:01 UTC)


TAF: 見つかりません

4,000以上の空港の気象観測と天気予報(METAR報とTAF報)

利用可能な観測所は地図上に黄色い丸と赤い丸で示す。

丸の上にカーソルを重ねると観測所名を参照できる。

次にクリックすると気象観測と天気予報を参照できる。

マップの切り替え:黒色「×」印の緑ボタンをクリックして拡大、「-」印の緑ボタンをクリックして縮小、緑色の三角印をクリックして隣りの地図に切り替え


METAR-TAF: